sensor_id;sensor_type;location;lat;lon;timestamp;P1;durP1;ratioP1;P2;durP2;ratioP2
40781;SDS011;26493;51.938;7.626;2022-12-07T00:00:41;29.58;;;20.25;;
40781;SDS011;26493;51.938;7.626;2022-12-07T00:03:07;28.00;;;20.15;;
40781;SDS011;26493;51.938;7.626;2022-12-07T00:05:33;24.50;;;17.20;;
40781;SDS011;26493;51.938;7.626;2022-12-07T00:07:59;29.20;;;19.92;;
40781;SDS011;26493;51.938;7.626;2022-12-07T00:10:25;27.55;;;19.88;;
40781;SDS011;26493;51.938;7.626;2022-12-07T00:12:51;27.15;;;20.15;;
40781;SDS011;26493;51.938;7.626;2022-12-07T00:15:17;27.40;;;19.38;;
40781;SDS011;26493;51.938;7.626;2022-12-07T00:17:43;26.67;;;19.23;;
40781;SDS011;26493;51.938;7.626;2022-12-07T00:20:09;29.52;;;20.95;;
40781;SDS011;26493;51.938;7.626;2022-12-07T00:22:36;28.05;;;21.20;;
40781;SDS011;26493;51.938;7.626;2022-12-07T00:25:02;28.08;;;19.85;;
40781;SDS011;26493;51.938;7.626;2022-12-07T00:27:28;27.95;;;19.77;;
40781;SDS011;26493;51.938;7.626;2022-12-07T00:29:54;28.15;;;19.50;;
40781;SDS011;26493;51.938;7.626;2022-12-07T00:32:20;27.23;;;19.55;;
40781;SDS011;26493;51.938;7.626;2022-12-07T00:34:46;25.85;;;17.83;;
40781;SDS011;26493;51.938;7.626;2022-12-07T00:37:12;28.52;;;20.13;;
40781;SDS011;26493;51.938;7.626;2022-12-07T00:39:38;26.02;;;17.83;;
40781;SDS011;26493;51.938;7.626;2022-12-07T00:42:04;26.60;;;18.48;;
40781;SDS011;26493;51.938;7.626;2022-12-07T00:44:30;26.23;;;18.45;;
40781;SDS011;26493;51.938;7.626;2022-12-07T00:46:57;24.40;;;17.92;;
40781;SDS011;26493;51.938;7.626;2022-12-07T00:49:23;27.95;;;19.70;;
40781;SDS011;26493;51.938;7.626;2022-12-07T00:51:49;25.63;;;16.55;;
40781;SDS011;26493;51.938;7.626;2022-12-07T00:54:15;28.00;;;18.38;;
40781;SDS011;26493;51.938;7.626;2022-12-07T00:56:41;23.48;;;18.83;;
40781;SDS011;26493;51.938;7.626;2022-12-07T00:59:10;28.48;;;18.88;;
40781;SDS011;26493;51.938;7.626;2022-12-07T01:01:38;25.02;;;18.10;;
40781;SDS011;26493;51.938;7.626;2022-12-07T01:04:04;24.98;;;17.73;;
40781;SDS011;26493;51.938;7.626;2022-12-07T01:06:30;28.38;;;18.55;;
40781;SDS011;26493;51.938;7.626;2022-12-07T01:08:56;23.95;;;15.23;;
40781;SDS011;26493;51.938;7.626;2022-12-07T01:11:23;24.65;;;17.83;;
40781;SDS011;26493;51.938;7.626;2022-12-07T01:13:50;25.67;;;17.05;;
40781;SDS011;26493;51.938;7.626;2022-12-07T01:16:17;24.08;;;15.27;;
40781;SDS011;26493;51.938;7.626;2022-12-07T01:18:45;25.10;;;17.40;;
40781;SDS011;26493;51.938;7.626;2022-12-07T01:21:21;25.40;;;16.95;;
40781;SDS011;26493;51.938;7.626;2022-12-07T01:23:48;29.08;;;17.05;;
40781;SDS011;26493;51.938;7.626;2022-12-07T01:26:15;25.17;;;17.02;;
40781;SDS011;26493;51.938;7.626;2022-12-07T01:28:41;24.67;;;16.70;;
40781;SDS011;26493;51.938;7.626;2022-12-07T01:31:09;24.42;;;15.77;;
40781;SDS011;26493;51.938;7.626;2022-12-07T01:38:29;25.67;;;16.05;;
40781;SDS011;26493;51.938;7.626;2022-12-07T01:40:55;25.75;;;16.20;;
40781;SDS011;26493;51.938;7.626;2022-12-07T01:43:22;26.70;;;19.13;;
40781;SDS011;26493;51.938;7.626;2022-12-07T01:45:49;28.08;;;17.08;;
40781;SDS011;26493;51.938;7.626;2022-12-07T01:48:16;26.90;;;16.83;;
40781;SDS011;26493;51.938;7.626;2022-12-07T01:50:44;25.30;;;17.75;;
40781;SDS011;26493;51.938;7.626;2022-12-07T01:53:11;27.35;;;17.65;;
40781;SDS011;26493;51.938;7.626;2022-12-07T01:55:38;28.48;;;18.40;;
40781;SDS011;26493;51.938;7.626;2022-12-07T01:58:06;29.42;;;20.88;;
40781;SDS011;26493;51.938;7.626;2022-12-07T02:00:32;26.67;;;17.02;;
40781;SDS011;26493;51.938;7.626;2022-12-07T02:05:31;32.50;;;21.02;;
40781;SDS011;26493;51.938;7.626;2022-12-07T02:07:57;28.17;;;19.05;;
40781;SDS011;26493;51.938;7.626;2022-12-07T02:10:27;28.02;;;17.48;;
40781;SDS011;26493;51.938;7.626;2022-12-07T02:12:55;28.98;;;17.80;;
40781;SDS011;26493;51.938;7.626;2022-12-07T02:15:22;36.63;;;20.67;;
40781;SDS011;26493;51.938;7.626;2022-12-07T02:20:33;30.55;;;19.55;;
40781;SDS011;26493;51.938;7.626;2022-12-07T02:23:04;30.00;;;19.02;;
40781;SDS011;26493;51.938;7.626;2022-12-07T02:28:05;28.25;;;20.63;;
40781;SDS011;26493;51.938;7.626;2022-12-07T02:30:33;30.77;;;18.85;;
40781;SDS011;26493;51.938;7.626;2022-12-07T02:33:05;27.10;;;18.55;;
40781;SDS011;26493;51.938;7.626;2022-12-07T02:35:33;28.67;;;18.67;;
40781;SDS011;26493;51.938;7.626;2022-12-07T02:42:57;28.52;;;18.73;;
40781;SDS011;26493;51.938;7.626;2022-12-07T02:45:25;28.55;;;19.90;;
40781;SDS011;26493;51.938;7.626;2022-12-07T02:50:19;31.10;;;19.92;;
40781;SDS011;26493;51.938;7.626;2022-12-07T02:52:46;30.60;;;20.00;;
40781;SDS011;26493;51.938;7.626;2022-12-07T02:55:12;29.23;;;18.98;;
40781;SDS011;26493;51.938;7.626;2022-12-07T02:57:42;33.42;;;20.27;;
40781;SDS011;26493;51.938;7.626;2022-12-07T03:00:17;32.42;;;20.55;;
40781;SDS011;26493;51.938;7.626;2022-12-07T03:05:17;30.75;;;19.23;;
40781;SDS011;26493;51.938;7.626;2022-12-07T03:13:02;33.60;;;19.95;;
40781;SDS011;26493;51.938;7.626;2022-12-07T03:15:33;31.23;;;19.20;;
40781;SDS011;26493;51.938;7.626;2022-12-07T03:18:01;35.17;;;20.48;;
40781;SDS011;26493;51.938;7.626;2022-12-07T03:20:28;29.55;;;18.35;;
40781;SDS011;26493;51.938;7.626;2022-12-07T03:22:55;41.60;;;20.85;;
40781;SDS011;26493;51.938;7.626;2022-12-07T03:25:22;30.98;;;19.75;;
40781;SDS011;26493;51.938;7.626;2022-12-07T03:27:56;31.55;;;20.65;;
40781;SDS011;26493;51.938;7.626;2022-12-07T03:30:23;38.95;;;20.23;;
40781;SDS011;26493;51.938;7.626;2022-12-07T03:35:43;35.00;;;21.13;;
40781;SDS011;26493;51.938;7.626;2022-12-07T03:40:41;32.58;;;21.27;;
40781;SDS011;26493;51.938;7.626;2022-12-07T03:43:09;35.65;;;22.42;;
40781;SDS011;26493;51.938;7.626;2022-12-07T03:45:42;34.33;;;21.02;;
40781;SDS011;26493;51.938;7.626;2022-12-07T03:50:57;35.83;;;22.50;;
40781;SDS011;26493;51.938;7.626;2022-12-07T03:53:36;33.50;;;21.52;;
40781;SDS011;26493;51.938;7.626;2022-12-07T03:56:04;35.03;;;22.17;;
40781;SDS011;26493;51.938;7.626;2022-12-07T03:58:31;35.75;;;22.33;;
40781;SDS011;26493;51.938;7.626;2022-12-07T04:00:57;35.67;;;24.08;;
40781;SDS011;26493;51.938;7.626;2022-12-07T04:03:23;33.50;;;22.60;;
40781;SDS011;26493;51.938;7.626;2022-12-07T04:05:49;36.10;;;22.58;;
40781;SDS011;26493;51.938;7.626;2022-12-07T04:08:15;33.30;;;22.70;;
40781;SDS011;26493;51.938;7.626;2022-12-07T04:10:41;35.67;;;22.20;;
40781;SDS011;26493;51.938;7.626;2022-12-07T04:13:07;36.00;;;23.42;;
40781;SDS011;26493;51.938;7.626;2022-12-07T04:15:33;35.25;;;24.38;;
40781;SDS011;26493;51.938;7.626;2022-12-07T04:17:59;34.67;;;22.83;;
40781;SDS011;26493;51.938;7.626;2022-12-07T04:20:25;34.75;;;23.55;;
40781;SDS011;26493;51.938;7.626;2022-12-07T04:22:51;39.28;;;21.95;;
40781;SDS011;26493;51.938;7.626;2022-12-07T04:25:17;32.75;;;20.02;;
40781;SDS011;26493;51.938;7.626;2022-12-07T04:27:43;33.10;;;20.08;;
40781;SDS011;26493;51.938;7.626;2022-12-07T04:30:09;34.67;;;21.30;;
40781;SDS011;26493;51.938;7.626;2022-12-07T04:32:35;30.85;;;20.58;;
40781;SDS011;26493;51.938;7.626;2022-12-07T04:35:02;33.33;;;21.88;;
40781;SDS011;26493;51.938;7.626;2022-12-07T04:37:28;35.65;;;22.02;;
40781;SDS011;26493;51.938;7.626;2022-12-07T04:39:54;34.00;;;21.52;;
40781;SDS011;26493;51.938;7.626;2022-12-07T04:42:20;32.85;;;19.88;;
40781;SDS011;26493;51.938;7.626;2022-12-07T04:44:46;37.17;;;22.20;;
40781;SDS011;26493;51.938;7.626;2022-12-07T04:47:12;30.75;;;21.00;;
40781;SDS011;26493;51.938;7.626;2022-12-07T04:49:38;33.78;;;22.98;;
40781;SDS011;26493;51.938;7.626;2022-12-07T04:52:04;33.17;;;21.52;;
40781;SDS011;26493;51.938;7.626;2022-12-07T04:54:30;34.60;;;22.13;;
40781;SDS011;26493;51.938;7.626;2022-12-07T04:56:56;29.70;;;20.55;;
40781;SDS011;26493;51.938;7.626;2022-12-07T04:59:22;34.80;;;23.08;;
40781;SDS011;26493;51.938;7.626;2022-12-07T05:01:48;33.08;;;20.40;;
40781;SDS011;26493;51.938;7.626;2022-12-07T05:04:14;31.63;;;20.95;;
40781;SDS011;26493;51.938;7.626;2022-12-07T05:06:41;32.15;;;19.10;;
40781;SDS011;26493;51.938;7.626;2022-12-07T05:09:07;31.85;;;18.92;;
40781;SDS011;26493;51.938;7.626;2022-12-07T05:11:33;32.85;;;19.13;;
40781;SDS011;26493;51.938;7.626;2022-12-07T05:16:31;26.02;;;17.42;;
40781;SDS011;26493;51.938;7.626;2022-12-07T05:18:57;29.15;;;17.48;;
40781;SDS011;26493;51.938;7.626;2022-12-07T05:21:23;38.03;;;17.05;;
40781;SDS011;26493;51.938;7.626;2022-12-07T05:23:49;33.10;;;16.60;;
40781;SDS011;26493;51.938;7.626;2022-12-07T05:26:15;21.80;;;13.57;;
40781;SDS011;26493;51.938;7.626;2022-12-07T05:28:41;26.98;;;15.02;;
40781;SDS011;26493;51.938;7.626;2022-12-07T05:31:07;29.38;;;16.30;;
40781;SDS011;26493;51.938;7.626;2022-12-07T05:33:33;26.23;;;14.23;;
40781;SDS011;26493;51.938;7.626;2022-12-07T05:35:59;25.10;;;14.93;;
40781;SDS011;26493;51.938;7.626;2022-12-07T05:38:31;21.55;;;13.82;;
40781;SDS011;26493;51.938;7.626;2022-12-07T05:41:04;24.63;;;12.90;;
40781;SDS011;26493;51.938;7.626;2022-12-07T05:43:32;25.60;;;13.80;;
40781;SDS011;26493;51.938;7.626;2022-12-07T05:45:58;29.35;;;15.77;;
40781;SDS011;26493;51.938;7.626;2022-12-07T05:48:24;21.23;;;13.43;;
40781;SDS011;26493;51.938;7.626;2022-12-07T05:50:51;25.38;;;15.02;;
40781;SDS011;26493;51.938;7.626;2022-12-07T05:53:17;25.60;;;13.77;;
40781;SDS011;26493;51.938;7.626;2022-12-07T05:55:43;22.60;;;13.85;;
40781;SDS011;26493;51.938;7.626;2022-12-07T05:58:10;25.98;;;13.30;;
40781;SDS011;26493;51.938;7.626;2022-12-07T06:00:55;20.83;;;12.73;;
40781;SDS011;26493;51.938;7.626;2022-12-07T06:03:21;24.13;;;12.82;;
40781;SDS011;26493;51.938;7.626;2022-12-07T06:05:47;20.67;;;12.95;;
40781;SDS011;26493;51.938;7.626;2022-12-07T06:08:13;22.30;;;13.52;;
40781;SDS011;26493;51.938;7.626;2022-12-07T06:10:40;18.70;;;12.00;;
40781;SDS011;26493;51.938;7.626;2022-12-07T06:13:06;23.50;;;14.73;;
40781;SDS011;26493;51.938;7.626;2022-12-07T06:15:32;23.58;;;13.15;;
40781;SDS011;26493;51.938;7.626;2022-12-07T06:17:58;21.90;;;12.38;;
40781;SDS011;26493;51.938;7.626;2022-12-07T06:20:24;21.77;;;13.25;;
40781;SDS011;26493;51.938;7.626;2022-12-07T06:22:50;22.45;;;13.90;;
40781;SDS011;26493;51.938;7.626;2022-12-07T06:25:16;23.98;;;13.70;;
40781;SDS011;26493;51.938;7.626;2022-12-07T06:27:42;21.83;;;13.63;;
40781;SDS011;26493;51.938;7.626;2022-12-07T06:30:08;22.67;;;12.80;;
40781;SDS011;26493;51.938;7.626;2022-12-07T06:32:36;23.20;;;12.95;;
40781;SDS011;26493;51.938;7.626;2022-12-07T06:35:02;21.75;;;13.95;;
40781;SDS011;26493;51.938;7.626;2022-12-07T06:37:28;23.52;;;13.85;;
40781;SDS011;26493;51.938;7.626;2022-12-07T06:39:54;20.48;;;13.63;;
40781;SDS011;26493;51.938;7.626;2022-12-07T06:42:21;21.13;;;13.95;;
40781;SDS011;26493;51.938;7.626;2022-12-07T06:44:47;25.45;;;14.65;;
40781;SDS011;26493;51.938;7.626;2022-12-07T06:47:13;21.23;;;13.60;;
40781;SDS011;26493;51.938;7.626;2022-12-07T06:49:39;23.85;;;15.35;;
40781;SDS011;26493;51.938;7.626;2022-12-07T06:52:05;23.33;;;15.35;;
40781;SDS011;26493;51.938;7.626;2022-12-07T06:54:31;23.80;;;15.85;;
40781;SDS011;26493;51.938;7.626;2022-12-07T06:56:57;23.30;;;14.55;;
40781;SDS011;26493;51.938;7.626;2022-12-07T06:59:23;21.23;;;15.13;;
40781;SDS011;26493;51.938;7.626;2022-12-07T07:01:50;26.23;;;16.40;;
40781;SDS011;26493;51.938;7.626;2022-12-07T07:04:16;23.45;;;16.80;;
40781;SDS011;26493;51.938;7.626;2022-12-07T07:06:42;24.08;;;15.93;;
40781;SDS011;26493;51.938;7.626;2022-12-07T07:09:08;24.25;;;16.17;;
40781;SDS011;26493;51.938;7.626;2022-12-07T07:11:34;25.75;;;15.25;;
40781;SDS011;26493;51.938;7.626;2022-12-07T07:14:00;23.70;;;15.70;;
40781;SDS011;26493;51.938;7.626;2022-12-07T07:16:28;30.67;;;16.83;;
40781;SDS011;26493;51.938;7.626;2022-12-07T07:18:55;23.80;;;15.75;;
40781;SDS011;26493;51.938;7.626;2022-12-07T07:21:21;25.25;;;15.52;;
40781;SDS011;26493;51.938;7.626;2022-12-07T07:23:47;24.88;;;16.70;;
40781;SDS011;26493;51.938;7.626;2022-12-07T07:26:13;23.08;;;15.32;;
40781;SDS011;26493;51.938;7.626;2022-12-07T07:28:39;29.70;;;16.40;;
40781;SDS011;26493;51.938;7.626;2022-12-07T07:31:05;22.40;;;14.95;;
40781;SDS011;26493;51.938;7.626;2022-12-07T07:33:31;26.88;;;15.65;;
40781;SDS011;26493;51.938;7.626;2022-12-07T07:35:57;22.38;;;14.32;;
40781;SDS011;26493;51.938;7.626;2022-12-07T07:38:23;23.65;;;15.02;;
40781;SDS011;26493;51.938;7.626;2022-12-07T07:40:49;27.80;;;17.05;;
40781;SDS011;26493;51.938;7.626;2022-12-07T07:43:15;25.73;;;15.50;;
40781;SDS011;26493;51.938;7.626;2022-12-07T07:45:41;20.60;;;14.50;;
40781;SDS011;26493;51.938;7.626;2022-12-07T07:48:07;22.60;;;15.35;;
40781;SDS011;26493;51.938;7.626;2022-12-07T07:50:33;22.90;;;14.95;;
40781;SDS011;26493;51.938;7.626;2022-12-07T07:52:59;23.67;;;15.70;;
40781;SDS011;26493;51.938;7.626;2022-12-07T07:55:25;27.00;;;17.63;;
40781;SDS011;26493;51.938;7.626;2022-12-07T07:57:51;25.85;;;17.67;;
40781;SDS011;26493;51.938;7.626;2022-12-07T08:00:17;23.38;;;16.95;;
40781;SDS011;26493;51.938;7.626;2022-12-07T08:02:44;25.95;;;18.02;;
40781;SDS011;26493;51.938;7.626;2022-12-07T08:05:11;23.27;;;17.85;;
40781;SDS011;26493;51.938;7.626;2022-12-07T08:07:37;33.05;;;20.35;;
40781;SDS011;26493;51.938;7.626;2022-12-07T08:10:04;25.25;;;18.40;;
40781;SDS011;26493;51.938;7.626;2022-12-07T08:12:31;25.15;;;18.20;;
40781;SDS011;26493;51.938;7.626;2022-12-07T08:14:57;24.02;;;18.65;;
40781;SDS011;26493;51.938;7.626;2022-12-07T08:17:23;22.95;;;19.05;;
40781;SDS011;26493;51.938;7.626;2022-12-07T08:19:49;24.67;;;18.55;;
40781;SDS011;26493;51.938;7.626;2022-12-07T08:22:15;28.70;;;19.45;;
40781;SDS011;26493;51.938;7.626;2022-12-07T08:24:41;23.83;;;19.30;;
40781;SDS011;26493;51.938;7.626;2022-12-07T08:27:07;24.60;;;19.27;;
40781;SDS011;26493;51.938;7.626;2022-12-07T08:29:33;30.33;;;21.70;;
40781;SDS011;26493;51.938;7.626;2022-12-07T08:31:59;24.20;;;19.77;;
40781;SDS011;26493;51.938;7.626;2022-12-07T08:34:26;23.10;;;19.67;;
40781;SDS011;26493;51.938;7.626;2022-12-07T08:36:52;24.77;;;19.33;;
40781;SDS011;26493;51.938;7.626;2022-12-07T08:39:18;25.75;;;20.65;;
40781;SDS011;26493;51.938;7.626;2022-12-07T08:41:45;29.42;;;19.95;;
40781;SDS011;26493;51.938;7.626;2022-12-07T08:44:11;27.52;;;20.38;;
40781;SDS011;26493;51.938;7.626;2022-12-07T08:46:41;31.35;;;20.45;;
40781;SDS011;26493;51.938;7.626;2022-12-07T08:51:35;25.80;;;16.80;;
40781;SDS011;26493;51.938;7.626;2022-12-07T08:54:03;25.42;;;17.45;;
40781;SDS011;26493;51.938;7.626;2022-12-07T08:56:30;23.65;;;18.10;;
40781;SDS011;26493;51.938;7.626;2022-12-07T08:58:56;26.92;;;17.17;;
40781;SDS011;26493;51.938;7.626;2022-12-07T09:01:23;22.65;;;16.33;;
40781;SDS011;26493;51.938;7.626;2022-12-07T09:03:49;24.90;;;15.30;;
40781;SDS011;26493;51.938;7.626;2022-12-07T09:06:15;27.85;;;16.23;;
40781;SDS011;26493;51.938;7.626;2022-12-07T09:08:42;22.35;;;14.63;;
40781;SDS011;26493;51.938;7.626;2022-12-07T09:11:09;19.63;;;14.20;;
40781;SDS011;26493;51.938;7.626;2022-12-07T09:13:35;23.35;;;13.98;;
40781;SDS011;26493;51.938;7.626;2022-12-07T09:16:01;22.60;;;14.70;;
40781;SDS011;26493;51.938;7.626;2022-12-07T09:18:27;22.70;;;13.77;;
40781;SDS011;26493;51.938;7.626;2022-12-07T09:20:54;23.08;;;15.88;;
40781;SDS011;26493;51.938;7.626;2022-12-07T09:23:20;22.27;;;14.38;;
40781;SDS011;26493;51.938;7.626;2022-12-07T09:25:46;21.42;;;13.85;;
40781;SDS011;26493;51.938;7.626;2022-12-07T09:28:12;20.42;;;13.38;;
40781;SDS011;26493;51.938;7.626;2022-12-07T09:30:38;23.65;;;13.23;;
40781;SDS011;26493;51.938;7.626;2022-12-07T09:33:05;22.08;;;13.90;;
40781;SDS011;26493;51.938;7.626;2022-12-07T09:35:31;17.60;;;12.63;;
40781;SDS011;26493;51.938;7.626;2022-12-07T09:37:57;22.23;;;12.88;;
40781;SDS011;26493;51.938;7.626;2022-12-07T09:40:23;21.33;;;14.00;;
40781;SDS011;26493;51.938;7.626;2022-12-07T09:42:50;23.27;;;13.82;;
40781;SDS011;26493;51.938;7.626;2022-12-07T09:45:18;19.40;;;12.43;;
40781;SDS011;26493;51.938;7.626;2022-12-07T09:47:45;21.02;;;14.25;;
40781;SDS011;26493;51.938;7.626;2022-12-07T09:50:15;21.33;;;13.80;;
40781;SDS011;26493;51.938;7.626;2022-12-07T09:52:42;21.77;;;14.65;;
40781;SDS011;26493;51.938;7.626;2022-12-07T09:55:14;21.55;;;13.70;;
40781;SDS011;26493;51.938;7.626;2022-12-07T09:57:41;24.13;;;15.93;;
40781;SDS011;26493;51.938;7.626;2022-12-07T10:00:12;18.20;;;13.65;;
40781;SDS011;26493;51.938;7.626;2022-12-07T10:02:40;21.20;;;12.60;;
40781;SDS011;26493;51.938;7.626;2022-12-07T10:05:56;25.67;;;13.88;;
40781;SDS011;26493;51.938;7.626;2022-12-07T10:07:57;20.05;;;12.65;;
40781;SDS011;26493;51.938;7.626;2022-12-07T10:10:25;22.02;;;13.57;;
40781;SDS011;26493;51.938;7.626;2022-12-07T10:15:40;19.15;;;12.73;;
40781;SDS011;26493;51.938;7.626;2022-12-07T10:18:13;23.13;;;13.32;;
40781;SDS011;26493;51.938;7.626;2022-12-07T10:20:42;20.45;;;13.00;;
40781;SDS011;26493;51.938;7.626;2022-12-07T10:23:13;19.70;;;12.77;;
40781;SDS011;26493;51.938;7.626;2022-12-07T10:25:39;20.13;;;13.20;;
40781;SDS011;26493;51.938;7.626;2022-12-07T10:30:34;20.10;;;12.40;;
40781;SDS011;26493;51.938;7.626;2022-12-07T10:33:28;19.55;;;12.30;;
40781;SDS011;26493;51.938;7.626;2022-12-07T10:35:54;20.95;;;13.05;;
40781;SDS011;26493;51.938;7.626;2022-12-07T10:38:20;19.92;;;13.02;;
40781;SDS011;26493;51.938;7.626;2022-12-07T10:40:46;23.42;;;13.80;;
40781;SDS011;26493;51.938;7.626;2022-12-07T10:43:16;23.17;;;12.55;;
40781;SDS011;26493;51.938;7.626;2022-12-07T11:01:03;19.17;;;8.70;;
40781;SDS011;26493;51.938;7.626;2022-12-07T11:08:54;15.68;;;7.97;;
40781;SDS011;26493;51.938;7.626;2022-12-07T11:16:37;19.65;;;8.80;;
40781;SDS011;26493;51.938;7.626;2022-12-07T11:24:18;16.08;;;7.68;;
40781;SDS011;26493;51.938;7.626;2022-12-07T11:27:03;16.70;;;8.30;;
40781;SDS011;26493;51.938;7.626;2022-12-07T11:34:33;18.73;;;8.32;;
40781;SDS011;26493;51.938;7.626;2022-12-07T11:37:01;21.65;;;9.30;;
40781;SDS011;26493;51.938;7.626;2022-12-07T11:39:33;19.60;;;7.35;;
40781;SDS011;26493;51.938;7.626;2022-12-07T11:42:01;18.45;;;7.97;;
40781;SDS011;26493;51.938;7.626;2022-12-07T11:47:16;16.40;;;7.93;;
40781;SDS011;26493;51.938;7.626;2022-12-07T11:53:02;15.80;;;7.53;;
40781;SDS011;26493;51.938;7.626;2022-12-07T11:55:16;18.45;;;8.00;;
40781;SDS011;26493;51.938;7.626;2022-12-07T11:57:45;23.58;;;8.30;;
40781;SDS011;26493;51.938;7.626;2022-12-07T12:00:15;18.67;;;8.82;;
40781;SDS011;26493;51.938;7.626;2022-12-07T12:02:51;17.35;;;7.50;;
40781;SDS011;26493;51.938;7.626;2022-12-07T12:05:19;17.92;;;8.68;;
40781;SDS011;26493;51.938;7.626;2022-12-07T12:07:47;19.05;;;9.27;;
40781;SDS011;26493;51.938;7.626;2022-12-07T12:18:17;16.80;;;7.53;;
40781;SDS011;26493;51.938;7.626;2022-12-07T12:23:19;16.30;;;8.70;;
40781;SDS011;26493;51.938;7.626;2022-12-07T12:25:47;18.60;;;7.38;;
40781;SDS011;26493;51.938;7.626;2022-12-07T12:28:57;18.05;;;9.35;;
40781;SDS011;26493;51.938;7.626;2022-12-07T12:34:30;18.40;;;8.27;;
40781;SDS011;26493;51.938;7.626;2022-12-07T12:36:59;16.05;;;8.20;;
40781;SDS011;26493;51.938;7.626;2022-12-07T12:39:28;15.70;;;7.40;;
40781;SDS011;26493;51.938;7.626;2022-12-07T12:41:55;17.90;;;7.93;;
40781;SDS011;26493;51.938;7.626;2022-12-07T12:51:47;16.63;;;8.43;;
40781;SDS011;26493;51.938;7.626;2022-12-07T12:54:20;17.00;;;7.95;;
40781;SDS011;26493;51.938;7.626;2022-12-07T13:04:58;15.48;;;7.72;;
40781;SDS011;26493;51.938;7.626;2022-12-07T13:12:54;15.57;;;7.50;;
40781;SDS011;26493;51.938;7.626;2022-12-07T13:26:36;16.45;;;8.38;;
40781;SDS011;26493;51.938;7.626;2022-12-07T13:31:39;15.80;;;7.95;;
40781;SDS011;26493;51.938;7.626;2022-12-07T13:36:50;15.40;;;8.55;;
40781;SDS011;26493;51.938;7.626;2022-12-07T13:41:49;17.88;;;7.32;;
40781;SDS011;26493;51.938;7.626;2022-12-07T13:44:34;17.70;;;8.13;;
40781;SDS011;26493;51.938;7.626;2022-12-07T13:49:49;15.30;;;7.60;;
40781;SDS011;26493;51.938;7.626;2022-12-07T13:54:58;18.80;;;7.60;;
40781;SDS011;26493;51.938;7.626;2022-12-07T13:57:28;18.05;;;7.82;;
40781;SDS011;26493;51.938;7.626;2022-12-07T13:59:55;21.20;;;8.57;;
40781;SDS011;26493;51.938;7.626;2022-12-07T14:02:26;15.40;;;7.43;;
40781;SDS011;26493;51.938;7.626;2022-12-07T14:08:20;16.42;;;8.02;;
40781;SDS011;26493;51.938;7.626;2022-12-07T14:15:59;16.27;;;7.75;;
40781;SDS011;26493;51.938;7.626;2022-12-07T14:18:46;16.48;;;7.55;;
40781;SDS011;26493;51.938;7.626;2022-12-07T14:23:40;14.93;;;7.55;;
40781;SDS011;26493;51.938;7.626;2022-12-07T14:28:33;22.75;;;8.68;;
40781;SDS011;26493;51.938;7.626;2022-12-07T14:31:00;17.92;;;7.95;;
40781;SDS011;26493;51.938;7.626;2022-12-07T14:33:27;17.80;;;7.90;;
40781;SDS011;26493;51.938;7.626;2022-12-07T14:35:53;17.42;;;8.13;;
40781;SDS011;26493;51.938;7.626;2022-12-07T14:38:23;16.80;;;7.55;;
40781;SDS011;26493;51.938;7.626;2022-12-07T14:40:49;15.40;;;7.18;;
40781;SDS011;26493;51.938;7.626;2022-12-07T14:43:16;17.23;;;8.00;;
40781;SDS011;26493;51.938;7.626;2022-12-07T14:45:43;16.95;;;7.60;;
40781;SDS011;26493;51.938;7.626;2022-12-07T14:48:14;16.23;;;7.32;;
40781;SDS011;26493;51.938;7.626;2022-12-07T14:50:42;17.05;;;7.93;;
40781;SDS011;26493;51.938;7.626;2022-12-07T14:53:10;16.63;;;7.53;;
40781;SDS011;26493;51.938;7.626;2022-12-07T14:55:37;18.15;;;8.20;;
40781;SDS011;26493;51.938;7.626;2022-12-07T14:58:03;15.75;;;7.60;;
40781;SDS011;26493;51.938;7.626;2022-12-07T15:00:29;17.08;;;8.07;;
40781;SDS011;26493;51.938;7.626;2022-12-07T15:02:55;16.70;;;8.60;;
40781;SDS011;26493;51.938;7.626;2022-12-07T15:05:21;21.38;;;8.10;;
40781;SDS011;26493;51.938;7.626;2022-12-07T15:07:48;18.02;;;7.70;;
40781;SDS011;26493;51.938;7.626;2022-12-07T15:10:18;15.30;;;7.30;;
40781;SDS011;26493;51.938;7.626;2022-12-07T15:12:45;15.52;;;7.78;;
40781;SDS011;26493;51.938;7.626;2022-12-07T15:15:11;16.92;;;7.70;;
40781;SDS011;26493;51.938;7.626;2022-12-07T15:17:37;14.40;;;7.75;;
40781;SDS011;26493;51.938;7.626;2022-12-07T15:20:03;17.33;;;8.20;;
40781;SDS011;26493;51.938;7.626;2022-12-07T15:22:30;16.58;;;7.47;;
40781;SDS011;26493;51.938;7.626;2022-12-07T15:24:56;17.48;;;7.70;;
40781;SDS011;26493;51.938;7.626;2022-12-07T15:27:22;15.98;;;7.28;;
40781;SDS011;26493;51.938;7.626;2022-12-07T15:29:48;15.52;;;7.90;;
40781;SDS011;26493;51.938;7.626;2022-12-07T15:32:14;18.25;;;7.78;;
40781;SDS011;26493;51.938;7.626;2022-12-07T15:34:40;18.58;;;7.80;;
40781;SDS011;26493;51.938;7.626;2022-12-07T15:37:07;20.10;;;7.70;;
40781;SDS011;26493;51.938;7.626;2022-12-07T15:39:33;18.30;;;7.50;;
40781;SDS011;26493;51.938;7.626;2022-12-07T15:42:02;19.35;;;8.32;;
40781;SDS011;26493;51.938;7.626;2022-12-07T15:44:28;16.23;;;7.70;;
40781;SDS011;26493;51.938;7.626;2022-12-07T15:47:13;19.88;;;7.90;;
40781;SDS011;26493;51.938;7.626;2022-12-07T15:49:39;20.10;;;8.10;;
40781;SDS011;26493;51.938;7.626;2022-12-07T15:52:05;14.93;;;7.53;;
40781;SDS011;26493;51.938;7.626;2022-12-07T15:54:32;18.13;;;8.35;;
40781;SDS011;26493;51.938;7.626;2022-12-07T15:56:58;21.02;;;9.32;;
40781;SDS011;26493;51.938;7.626;2022-12-07T15:59:25;21.58;;;9.10;;
40781;SDS011;26493;51.938;7.626;2022-12-07T16:01:51;19.10;;;7.97;;
40781;SDS011;26493;51.938;7.626;2022-12-07T16:04:17;19.20;;;8.05;;
40781;SDS011;26493;51.938;7.626;2022-12-07T16:06:43;19.58;;;8.30;;
40781;SDS011;26493;51.938;7.626;2022-12-07T16:09:09;18.08;;;8.75;;
40781;SDS011;26493;51.938;7.626;2022-12-07T16:11:35;20.38;;;8.10;;
40781;SDS011;26493;51.938;7.626;2022-12-07T16:14:02;28.08;;;8.85;;
40781;SDS011;26493;51.938;7.626;2022-12-07T16:16:30;18.65;;;8.35;;
40781;SDS011;26493;51.938;7.626;2022-12-07T16:18:56;19.90;;;8.90;;
40781;SDS011;26493;51.938;7.626;2022-12-07T16:21:23;19.92;;;8.98;;
40781;SDS011;26493;51.938;7.626;2022-12-07T16:23:49;22.17;;;8.73;;
40781;SDS011;26493;51.938;7.626;2022-12-07T16:26:16;17.85;;;9.15;;
40781;SDS011;26493;51.938;7.626;2022-12-07T16:28:42;17.70;;;8.70;;
40781;SDS011;26493;51.938;7.626;2022-12-07T16:31:09;19.05;;;9.35;;
40781;SDS011;26493;51.938;7.626;2022-12-07T16:33:36;19.27;;;9.45;;
40781;SDS011;26493;51.938;7.626;2022-12-07T16:36:03;18.70;;;8.43;;
40781;SDS011;26493;51.938;7.626;2022-12-07T16:38:30;20.73;;;8.93;;
40781;SDS011;26493;51.938;7.626;2022-12-07T16:40:56;22.33;;;9.60;;
40781;SDS011;26493;51.938;7.626;2022-12-07T16:43:22;18.17;;;9.27;;
40781;SDS011;26493;51.938;7.626;2022-12-07T16:45:48;22.08;;;8.82;;
40781;SDS011;26493;51.938;7.626;2022-12-07T16:48:14;19.02;;;8.82;;
40781;SDS011;26493;51.938;7.626;2022-12-07T16:50:40;18.50;;;9.70;;
40781;SDS011;26493;51.938;7.626;2022-12-07T16:53:07;20.33;;;9.27;;
40781;SDS011;26493;51.938;7.626;2022-12-07T16:55:41;18.42;;;8.82;;
40781;SDS011;26493;51.938;7.626;2022-12-07T16:58:07;20.90;;;8.88;;
40781;SDS011;26493;51.938;7.626;2022-12-07T17:00:36;19.05;;;9.55;;
40781;SDS011;26493;51.938;7.626;2022-12-07T17:03:02;19.95;;;9.75;;
40781;SDS011;26493;51.938;7.626;2022-12-07T17:05:29;19.80;;;9.30;;
40781;SDS011;26493;51.938;7.626;2022-12-07T17:07:56;18.38;;;9.27;;